createdAt,value
2023-12-09T00:00:24.444Z,20.47
2023-12-09T00:02:50.909Z,20.37
2023-12-09T00:05:17.355Z,20.27
2023-12-09T00:07:43.769Z,20.33
2023-12-09T00:10:10.452Z,18.50
2023-12-09T00:12:36.939Z,21.53
2023-12-09T00:15:05.439Z,19.63
2023-12-09T00:17:32.292Z,20.10
2023-12-09T00:20:00.355Z,19.37
2023-12-09T00:22:27.235Z,19.93
2023-12-09T00:24:53.893Z,19.17
2023-12-09T00:27:20.327Z,20.90
2023-12-09T00:29:46.864Z,19.43
2023-12-09T00:32:13.359Z,19.73
2023-12-09T00:34:39.790Z,19.10
2023-12-09T00:37:06.166Z,18.07
2023-12-09T00:39:32.609Z,19.20
2023-12-09T00:41:59.110Z,18.43
2023-12-09T00:44:25.487Z,18.70
2023-12-09T00:46:52.177Z,17.87
2023-12-09T00:49:19.292Z,18.77
2023-12-09T00:51:45.721Z,18.07
2023-12-09T00:54:12.186Z,18.63
2023-12-09T00:56:38.565Z,18.00
2023-12-09T00:59:06.974Z,18.07
2023-12-09T01:01:34.828Z,17.80
2023-12-09T01:04:02.208Z,18.10
2023-12-09T01:06:29.969Z,18.27
2023-12-09T01:08:56.918Z,19.07
2023-12-09T01:11:24.855Z,17.27
2023-12-09T01:13:51.318Z,18.13
2023-12-09T01:16:17.718Z,17.47
2023-12-09T01:18:44.188Z,17.57
2023-12-09T01:21:10.735Z,18.43
2023-12-09T01:23:37.335Z,18.43
2023-12-09T01:26:03.932Z,17.60
2023-12-09T01:28:30.315Z,18.70
2023-12-09T01:30:56.689Z,18.10
2023-12-09T01:33:23.247Z,20.23
2023-12-09T01:35:49.672Z,19.67
2023-12-09T01:38:16.104Z,20.57
2023-12-09T01:40:42.482Z,18.90
2023-12-09T01:43:10.675Z,19.17
2023-12-09T01:45:37.159Z,19.07
2023-12-09T01:48:05.423Z,23.03
2023-12-09T01:50:32.148Z,20.87
2023-12-09T01:52:59.078Z,21.70
2023-12-09T01:55:25.602Z,20.47
2023-12-09T01:57:53.571Z,23.13
2023-12-09T02:00:22.252Z,23.37
2023-12-09T02:02:49.194Z,23.03
2023-12-09T02:05:15.894Z,23.70
2023-12-09T02:07:42.294Z,22.53
2023-12-09T02:10:08.911Z,22.17
2023-12-09T02:13:06.159Z,22.73
2023-12-09T02:15:41.286Z,22.47
2023-12-09T02:18:08.923Z,23.23
2023-12-09T02:20:35.841Z,22.67
2023-12-09T02:23:12.930Z,22.77
2023-12-09T02:25:40.791Z,22.73
2023-12-09T02:28:14.791Z,24.80
2023-12-09T02:30:51.221Z,24.07
2023-12-09T02:33:19.673Z,24.73
2023-12-09T02:35:48.634Z,23.30
2023-12-09T02:38:17.436Z,24.40
2023-12-09T02:40:45.748Z,23.63
2023-12-09T02:43:13.370Z,23.83
2023-12-09T02:45:40.060Z,23.97
2023-12-09T02:48:07.016Z,24.37
2023-12-09T02:50:34.135Z,24.07
2023-12-09T02:53:00.572Z,23.33
2023-12-09T02:55:26.984Z,24.53
2023-12-09T02:57:53.357Z,26.10
2023-12-09T03:00:19.942Z,25.80
2023-12-09T03:02:46.446Z,24.90
2023-12-09T03:05:12.958Z,24.60
2023-12-09T03:07:39.457Z,24.87
2023-12-09T03:10:06.236Z,23.43
2023-12-09T03:12:32.749Z,25.77
2023-12-09T03:14:59.172Z,23.70
2023-12-09T03:17:25.695Z,25.43
2023-12-09T03:19:52.104Z,25.10
2023-12-09T03:22:18.639Z,25.00
2023-12-09T03:24:45.062Z,25.17
2023-12-09T03:27:11.568Z,25.47
2023-12-09T03:29:37.981Z,25.43
2023-12-09T03:32:04.802Z,24.63
2023-12-09T03:34:31.390Z,24.60
2023-12-09T03:36:57.864Z,25.17
2023-12-09T03:39:24.493Z,25.70
2023-12-09T03:41:51.096Z,25.93
2023-12-09T03:44:17.759Z,26.07
2023-12-09T03:46:44.179Z,27.77
2023-12-09T03:49:10.798Z,25.83
2023-12-09T03:51:37.312Z,27.47
2023-12-09T03:54:03.937Z,29.07
2023-12-09T03:56:30.494Z,28.97
2023-12-09T03:58:56.858Z,29.70
2023-12-09T04:01:25.680Z,30.33
2023-12-09T04:03:52.636Z,32.50
2023-12-09T04:06:19.290Z,30.87
2023-12-09T04:08:45.804Z,29.93
2023-12-09T04:11:12.136Z,30.00
2023-12-09T04:13:38.513Z,30.67
2023-12-09T04:16:07.038Z,29.33
2023-12-09T04:18:33.612Z,31.70
2023-12-09T04:21:00.071Z,31.17
2023-12-09T04:23:26.583Z,29.80
2023-12-09T04:25:52.994Z,31.07
2023-12-09T04:28:19.411Z,29.43
2023-12-09T04:30:45.936Z,32.13
2023-12-09T04:33:12.376Z,31.47
2023-12-09T04:35:38.857Z,32.53
2023-12-09T04:38:05.978Z,29.53
2023-12-09T04:40:32.337Z,30.47
2023-12-09T04:42:58.729Z,33.43
2023-12-09T04:45:25.135Z,33.60
2023-12-09T04:47:52.207Z,31.07
2023-12-09T04:50:18.840Z,33.70
2023-12-09T04:52:45.252Z,32.33
2023-12-09T04:55:11.651Z,30.70
2023-12-09T04:57:38.622Z,31.13
2023-12-09T05:00:06.825Z,32.47
2023-12-09T05:02:33.444Z,32.07
2023-12-09T05:04:59.814Z,31.47
2023-12-09T05:07:27.377Z,32.07
2023-12-09T05:09:54.122Z,31.47
2023-12-09T05:12:20.915Z,31.40
2023-12-09T05:14:47.508Z,34.13
2023-12-09T05:17:14.005Z,34.43
2023-12-09T05:19:40.430Z,32.77
2023-12-09T05:22:07.515Z,33.20
2023-12-09T05:24:34.018Z,31.83
2023-12-09T05:27:00.502Z,31.27
2023-12-09T05:29:26.961Z,31.67
2023-12-09T05:31:53.333Z,33.03
2023-12-09T05:34:19.799Z,35.87
2023-12-09T05:36:46.190Z,32.13
2023-12-09T05:39:12.531Z,31.13
2023-12-09T05:41:42.689Z,33.80
2023-12-09T05:44:09.146Z,32.03
2023-12-09T05:46:37.414Z,32.57
2023-12-09T05:49:04.025Z,31.67
2023-12-09T05:51:30.767Z,34.83
2023-12-09T05:53:57.237Z,32.17
2023-12-09T05:56:23.686Z,33.97
2023-12-09T05:58:50.196Z,33.20
2023-12-09T06:01:16.730Z,33.50
2023-12-09T06:03:43.160Z,31.20
2023-12-09T06:06:11.144Z,31.30
2023-12-09T06:08:37.628Z,34.63
2023-12-09T06:11:04.239Z,33.87
2023-12-09T06:13:32.233Z,33.27
2023-12-09T06:15:58.647Z,34.00
2023-12-09T06:18:26.229Z,32.17
2023-12-09T06:20:52.700Z,36.20
2023-12-09T06:23:19.062Z,35.60
2023-12-09T06:25:45.584Z,34.10
2023-12-09T06:28:11.984Z,31.30
2023-12-09T06:30:38.572Z,32.67
2023-12-09T06:33:05.223Z,32.67
2023-12-09T06:35:31.787Z,30.63
2023-12-09T06:37:58.581Z,34.57
2023-12-09T06:40:24.997Z,33.13
2023-12-09T06:42:51.728Z,33.07
2023-12-09T06:45:18.427Z,32.77
2023-12-09T06:47:44.966Z,34.50
2023-12-09T06:50:12.224Z,30.30
2023-12-09T06:52:38.708Z,34.83
2023-12-09T06:55:05.490Z,36.83
2023-12-09T06:57:31.989Z,31.87
2023-12-09T06:59:58.420Z,35.23
2023-12-09T07:02:25.036Z,31.73
2023-12-09T07:04:51.795Z,34.40
2023-12-09T07:07:21.993Z,29.90
2023-12-09T07:09:49.038Z,29.20
2023-12-09T07:12:15.532Z,29.20
2023-12-09T07:14:41.999Z,30.07
2023-12-09T07:17:08.337Z,29.67
2023-12-09T07:19:35.031Z,30.00
2023-12-09T07:22:04.464Z,29.97
2023-12-09T07:24:31.441Z,30.10
2023-12-09T07:26:57.963Z,27.33
2023-12-09T07:29:26.518Z,30.03
2023-12-09T07:31:53.863Z,27.83
2023-12-09T07:34:21.508Z,25.47
2023-12-09T07:36:48.103Z,29.40
2023-12-09T07:39:14.605Z,29.27
2023-12-09T07:41:42.741Z,28.13
2023-12-09T07:44:09.223Z,26.87
2023-12-09T07:46:35.649Z,27.70
2023-12-09T07:49:02.080Z,26.40
2023-12-09T07:51:28.974Z,26.10
2023-12-09T07:53:55.495Z,27.93
2023-12-09T07:56:21.900Z,24.57
2023-12-09T07:58:48.357Z,28.07
2023-12-09T08:01:14.854Z,27.43
2023-12-09T08:03:41.705Z,27.03
2023-12-09T08:06:08.804Z,26.73
2023-12-09T08:08:36.134Z,24.53
2023-12-09T08:11:04.083Z,23.60
2023-12-09T08:13:30.810Z,24.93
2023-12-09T08:15:57.159Z,22.60
2023-12-09T08:18:23.945Z,23.37
2023-12-09T08:20:50.492Z,24.43
2023-12-09T08:23:16.931Z,22.80
2023-12-09T08:25:44.680Z,25.17
2023-12-09T08:28:11.825Z,24.00
2023-12-09T08:30:40.258Z,23.43
2023-12-09T08:33:06.856Z,25.37
2023-12-09T08:35:33.591Z,22.17
2023-12-09T08:38:00.136Z,23.03
2023-12-09T08:40:26.641Z,25.57
2023-12-09T08:42:52.989Z,23.80
2023-12-09T08:45:19.538Z,23.53
2023-12-09T08:47:46.357Z,24.40
2023-12-09T08:50:22.032Z,22.23
2023-12-09T08:52:52.237Z,21.93
2023-12-09T08:55:18.968Z,23.30
2023-12-09T08:57:46.317Z,23.73
2023-12-09T09:00:15.152Z,21.57
2023-12-09T09:02:41.770Z,22.80
2023-12-09T09:05:08.702Z,21.50
2023-12-09T09:07:39.819Z,21.57
2023-12-09T09:10:09.448Z,23.90
2023-12-09T09:12:35.874Z,20.53
2023-12-09T09:15:06.014Z,20.57
2023-12-09T09:17:36.091Z,20.27
2023-12-09T09:20:04.479Z,23.10
2023-12-09T09:22:30.927Z,19.63
2023-12-09T09:24:59.177Z,19.17
2023-12-09T09:27:26.616Z,20.63
2023-12-09T09:29:54.027Z,19.10
2023-12-09T09:32:20.515Z,20.33
2023-12-09T09:34:47.007Z,21.20
2023-12-09T09:37:13.440Z,18.73
2023-12-09T09:39:39.850Z,21.33
2023-12-09T09:42:33.002Z,22.50
2023-12-09T09:45:15.584Z,18.23
2023-12-09T09:47:42.862Z,19.17
2023-12-09T09:50:10.241Z,19.40
2023-12-09T09:52:38.751Z,19.53
2023-12-09T09:55:07.587Z,19.60
2023-12-09T09:57:34.890Z,17.90
2023-12-09T10:00:01.924Z,19.77
2023-12-09T10:02:28.935Z,17.33
2023-12-09T10:04:55.524Z,17.30
2023-12-09T10:07:22.740Z,18.03
2023-12-09T10:09:50.089Z,17.17
2023-12-09T10:12:16.651Z,16.80
2023-12-09T10:14:43.924Z,17.47
2023-12-09T10:17:10.889Z,18.70
2023-12-09T10:19:37.718Z,16.53
2023-12-09T10:22:04.344Z,17.73
2023-12-09T10:24:30.689Z,17.33
2023-12-09T10:26:57.833Z,17.00
2023-12-09T10:29:25.749Z,16.50
2023-12-09T10:31:52.186Z,15.83
2023-12-09T10:34:19.456Z,15.60
2023-12-09T10:36:46.195Z,16.93
2023-12-09T10:39:12.723Z,17.43
2023-12-09T10:41:39.081Z,15.37
2023-12-09T10:44:05.717Z,15.53
2023-12-09T10:46:32.077Z,16.20
2023-12-09T10:48:58.861Z,16.30
2023-12-09T10:51:25.478Z,15.40
2023-12-09T10:53:51.897Z,14.23
2023-12-09T10:56:19.613Z,14.47
2023-12-09T10:58:47.717Z,14.37
2023-12-09T11:01:17.177Z,14.17
2023-12-09T11:03:43.697Z,15.57
2023-12-09T11:06:11.562Z,14.20
2023-12-09T11:08:39.596Z,14.07
2023-12-09T11:11:08.996Z,13.53
2023-12-09T11:13:36.044Z,15.87
2023-12-09T11:16:10.384Z,15.93
2023-12-09T11:18:37.130Z,14.00
2023-12-09T11:21:04.918Z,14.67
2023-12-09T11:23:31.714Z,14.27
2023-12-09T11:25:58.167Z,15.60
2023-12-09T11:28:25.663Z,13.80
2023-12-09T11:30:57.130Z,13.87
2023-12-09T11:33:25.205Z,13.23
2023-12-09T11:35:53.559Z,13.13
2023-12-09T11:38:20.921Z,13.67
2023-12-09T11:40:47.774Z,16.47
2023-12-09T11:43:15.213Z,14.43
2023-12-09T11:45:42.085Z,15.37
2023-12-09T11:48:10.155Z,14.53
2023-12-09T11:50:40.474Z,13.40
2023-12-09T11:53:06.934Z,16.00
2023-12-09T11:55:33.543Z,14.53
2023-12-09T11:58:00.015Z,15.20
2023-12-09T12:00:27.264Z,13.53
2023-12-09T12:02:53.717Z,13.07
2023-12-09T12:05:21.074Z,12.20
2023-12-09T12:07:47.597Z,13.30
2023-12-09T12:10:16.008Z,12.00
2023-12-09T12:12:43.584Z,12.60
2023-12-09T12:15:10.861Z,11.67
2023-12-09T12:17:39.261Z,12.53
2023-12-09T12:20:07.901Z,11.93
2023-12-09T12:22:34.764Z,11.60
2023-12-09T12:25:01.516Z,11.90
2023-12-09T12:27:27.917Z,11.10
2023-12-09T12:29:55.902Z,11.97
2023-12-09T12:32:22.332Z,13.07
2023-12-09T12:34:48.805Z,12.03
2023-12-09T12:37:15.264Z,12.27
2023-12-09T12:39:42.208Z,12.60
2023-12-09T12:42:09.562Z,12.87
2023-12-09T12:44:36.400Z,12.77
2023-12-09T12:47:02.886Z,12.53
2023-12-09T12:49:36.302Z,12.87
2023-12-09T12:52:04.434Z,12.80
2023-12-09T12:54:30.818Z,13.50
2023-12-09T12:56:57.325Z,14.00
2023-12-09T12:59:23.763Z,14.30
2023-12-09T13:01:50.175Z,14.43
2023-12-09T13:04:17.670Z,14.97
2023-12-09T13:06:44.489Z,14.83
2023-12-09T13:09:12.318Z,14.13
2023-12-09T13:11:38.771Z,14.20
2023-12-09T13:14:06.058Z,13.73
2023-12-09T13:16:32.621Z,13.17
2023-12-09T13:18:59.095Z,13.50
2023-12-09T13:21:26.115Z,13.33
2023-12-09T13:23:52.811Z,12.93
2023-12-09T13:26:19.269Z,12.07
2023-12-09T13:28:45.740Z,12.20
2023-12-09T13:31:12.127Z,12.40
2023-12-09T13:33:38.730Z,11.90
2023-12-09T13:36:05.861Z,11.53
2023-12-09T13:38:32.354Z,11.97
2023-12-09T13:40:59.922Z,11.17
2023-12-09T13:43:26.719Z,11.47
2023-12-09T13:45:53.174Z,13.23
2023-12-09T13:48:19.882Z,12.00
2023-12-09T13:50:46.549Z,11.77
2023-12-09T13:53:13.319Z,11.10
2023-12-09T13:55:40.455Z,11.67
2023-12-09T13:58:07.777Z,11.27
2023-12-09T14:00:34.587Z,10.83
2023-12-09T14:03:01.211Z,10.73
2023-12-09T14:05:28.114Z,10.37
2023-12-09T14:07:55.260Z,12.67
2023-12-09T14:10:21.686Z,11.40
2023-12-09T14:12:48.988Z,13.47
2023-12-09T14:15:15.620Z,11.10
2023-12-09T14:17:43.403Z,12.20
2023-12-09T14:20:12.948Z,11.07
2023-12-09T14:22:39.754Z,10.53
2023-12-09T14:25:06.451Z,9.73
2023-12-09T14:27:33.105Z,14.17
2023-12-09T14:29:59.553Z,10.60
2023-12-09T14:32:26.221Z,11.50
2023-12-09T14:34:53.038Z,11.83
2023-12-09T14:37:19.610Z,10.97
2023-12-09T14:39:46.305Z,11.43
2023-12-09T14:42:12.714Z,11.97
2023-12-09T14:44:39.244Z,15.70
2023-12-09T14:47:05.859Z,12.90
2023-12-09T14:49:32.414Z,10.80
2023-12-09T14:51:58.915Z,11.00
2023-12-09T14:54:25.481Z,9.93
2023-12-09T14:56:52.694Z,10.17
2023-12-09T14:59:19.636Z,11.00
2023-12-09T15:01:46.098Z,9.80
2023-12-09T15:04:12.613Z,9.60
2023-12-09T15:06:39.354Z,10.67
2023-12-09T15:09:05.906Z,10.30
2023-12-09T15:11:32.332Z,11.00
2023-12-09T15:13:58.733Z,10.43
2023-12-09T15:16:25.254Z,10.30
2023-12-09T15:18:52.099Z,10.07
2023-12-09T15:21:18.624Z,9.93
2023-12-09T15:23:45.614Z,10.40
2023-12-09T15:26:12.380Z,10.40
2023-12-09T15:28:39.025Z,9.93
2023-12-09T15:31:05.499Z,9.30
2023-12-09T15:33:32.158Z,11.23
2023-12-09T15:35:58.885Z,10.10
2023-12-09T15:38:26.196Z,10.60
2023-12-09T15:40:52.673Z,10.77
2023-12-09T15:43:19.305Z,9.83
2023-12-09T15:45:45.829Z,9.63
2023-12-09T15:48:12.653Z,9.80
2023-12-09T15:50:39.458Z,10.00
2023-12-09T15:53:05.973Z,10.00
2023-12-09T15:55:33.642Z,9.87
2023-12-09T15:58:00.427Z,9.50
2023-12-09T16:00:27.103Z,10.20
2023-12-09T16:02:54.007Z,9.27
2023-12-09T16:05:20.755Z,9.53
2023-12-09T16:07:47.598Z,9.27
2023-12-09T16:10:14.086Z,9.07
2023-12-09T16:12:40.949Z,8.70
2023-12-09T16:15:08.183Z,9.13
2023-12-09T16:17:36.091Z,9.27
2023-12-09T16:20:05.481Z,9.03
2023-12-09T16:22:31.982Z,8.73
2023-12-09T16:24:58.571Z,8.73
2023-12-09T16:27:25.076Z,8.20
2023-12-09T16:29:52.609Z,9.10
2023-12-09T16:32:19.313Z,8.20
2023-12-09T16:34:45.807Z,7.80
2023-12-09T16:37:12.930Z,8.67
2023-12-09T16:39:39.840Z,9.20
2023-12-09T16:42:06.417Z,8.63
2023-12-09T16:44:32.946Z,8.93
2023-12-09T16:46:59.664Z,7.40
2023-12-09T16:49:26.218Z,7.60
2023-12-09T16:51:52.869Z,7.40
2023-12-09T16:54:19.352Z,7.27
2023-12-09T16:56:45.944Z,7.30
2023-12-09T16:59:12.417Z,6.53
2023-12-09T17:01:39.466Z,6.60
2023-12-09T17:04:06.680Z,7.03
2023-12-09T17:06:33.941Z,6.70
2023-12-09T17:09:01.253Z,7.53
2023-12-09T17:11:28.176Z,7.03
2023-12-09T17:13:54.657Z,7.00
2023-12-09T17:16:21.186Z,7.07
2023-12-09T17:18:47.739Z,6.73
2023-12-09T17:21:14.685Z,7.10
2023-12-09T17:23:41.960Z,6.70
2023-12-09T17:26:08.706Z,7.40
2023-12-09T17:28:35.361Z,6.83
2023-12-09T17:31:02.222Z,6.30
2023-12-09T17:33:28.892Z,6.60
2023-12-09T17:35:55.499Z,6.33
2023-12-09T17:38:22.020Z,6.43
2023-12-09T17:40:48.418Z,6.93
2023-12-09T17:43:14.889Z,6.33
2023-12-09T17:45:41.559Z,6.90
2023-12-09T17:48:08.230Z,6.17
2023-12-09T17:50:34.992Z,6.23
2023-12-09T17:53:01.356Z,6.50
2023-12-09T17:55:27.954Z,7.03
2023-12-09T17:57:56.805Z,6.67
2023-12-09T18:00:23.594Z,6.87
2023-12-09T18:02:50.170Z,7.37
2023-12-09T18:05:16.725Z,6.93
2023-12-09T18:07:43.352Z,6.67
2023-12-09T18:10:09.987Z,6.57
2023-12-09T18:12:36.382Z,6.27
2023-12-09T18:15:02.925Z,6.63
2023-12-09T18:17:29.441Z,6.97
2023-12-09T18:19:56.965Z,6.20
2023-12-09T18:22:23.484Z,6.37
2023-12-09T18:24:50.129Z,6.33
2023-12-09T18:27:16.946Z,6.30
2023-12-09T18:29:43.905Z,6.23
2023-12-09T18:32:15.813Z,6.30
2023-12-09T18:34:43.179Z,7.00
2023-12-09T18:37:10.895Z,6.10
2023-12-09T18:39:37.327Z,6.40
2023-12-09T18:42:03.963Z,6.30
2023-12-09T18:44:30.457Z,6.80
2023-12-09T18:46:56.980Z,6.77
2023-12-09T18:49:23.537Z,7.50
2023-12-09T18:51:50.159Z,7.23
2023-12-09T18:54:16.736Z,6.83
2023-12-09T18:56:43.235Z,6.70
2023-12-09T18:59:09.640Z,6.90
2023-12-09T19:01:36.199Z,6.80
2023-12-09T19:04:03.355Z,6.97
2023-12-09T19:06:32.708Z,6.27
2023-12-09T19:09:03.730Z,6.43
2023-12-09T19:11:30.294Z,7.23
2023-12-09T19:13:56.702Z,6.60
2023-12-09T19:16:23.177Z,7.53
2023-12-09T19:18:49.660Z,7.93
2023-12-09T19:21:16.211Z,7.30
2023-12-09T19:23:42.621Z,7.57
2023-12-09T19:26:09.122Z,7.57
2023-12-09T19:28:35.511Z,7.10
2023-12-09T19:31:01.942Z,7.77
2023-12-09T19:33:29.691Z,7.17
2023-12-09T19:35:56.388Z,7.67
2023-12-09T19:38:22.839Z,6.90
2023-12-09T19:40:49.397Z,7.17
2023-12-09T19:43:16.034Z,6.93
2023-12-09T19:45:42.489Z,11.73
2023-12-09T19:48:09.151Z,7.60
2023-12-09T19:50:35.696Z,7.33
2023-12-09T19:53:04.876Z,5.83
2023-12-09T19:55:31.400Z,6.90
2023-12-09T19:57:58.275Z,7.17
2023-12-09T20:00:24.723Z,8.97
2023-12-09T20:02:51.304Z,8.37
2023-12-09T20:05:19.186Z,8.03
2023-12-09T20:07:45.987Z,7.00
2023-12-09T20:10:12.416Z,6.60
2023-12-09T20:12:38.990Z,6.60
2023-12-09T20:15:07.462Z,6.90
2023-12-09T20:17:34.367Z,6.60
2023-12-09T20:20:01.404Z,6.50
2023-12-09T20:22:28.182Z,7.13
2023-12-09T20:24:57.026Z,6.63
2023-12-09T20:27:23.714Z,7.57
2023-12-09T20:29:55.174Z,7.37
2023-12-09T20:32:22.263Z,7.80
2023-12-09T20:34:49.563Z,7.57
2023-12-09T20:37:16.155Z,6.73
2023-12-09T20:39:42.670Z,7.23
2023-12-09T20:42:09.178Z,6.87
2023-12-09T20:44:35.628Z,7.07
2023-12-09T20:47:02.165Z,6.97
2023-12-09T20:49:28.707Z,6.53
2023-12-09T20:51:55.202Z,6.37
2023-12-09T20:54:21.705Z,5.53
2023-12-09T20:56:49.160Z,5.50
2023-12-09T20:59:16.171Z,6.20
2023-12-09T21:01:46.470Z,5.90
2023-12-09T21:04:14.014Z,6.07
2023-12-09T21:06:40.876Z,5.67
2023-12-09T21:09:08.252Z,5.73
2023-12-09T21:11:38.466Z,6.23
2023-12-09T21:14:08.052Z,5.67
2023-12-09T21:16:35.654Z,6.03
2023-12-09T21:19:03.342Z,5.90
2023-12-09T21:21:32.918Z,6.30
2023-12-09T21:23:59.463Z,5.67
2023-12-09T21:26:25.964Z,6.27
2023-12-09T21:28:52.409Z,6.30
2023-12-09T21:31:18.862Z,6.63
2023-12-09T21:33:45.542Z,6.57
2023-12-09T21:36:16.133Z,6.10
2023-12-09T21:38:43.964Z,6.53
2023-12-09T21:41:21.560Z,6.67
2023-12-09T21:43:51.316Z,6.73
2023-12-09T21:46:22.536Z,6.70
2023-12-09T21:48:49.949Z,6.10
2023-12-09T21:51:17.492Z,6.20
2023-12-09T21:53:44.076Z,6.30
2023-12-09T21:56:23.876Z,6.23
2023-12-09T21:58:50.947Z,6.00
2023-12-09T22:01:18.267Z,5.27
2023-12-09T22:03:45.010Z,5.60
2023-12-09T22:06:13.593Z,5.40
2023-12-09T22:08:41.252Z,5.50
2023-12-09T22:11:09.842Z,5.00
2023-12-09T22:13:36.388Z,5.30
2023-12-09T22:16:02.804Z,4.73
2023-12-09T22:18:29.601Z,4.97
2023-12-09T22:20:56.166Z,4.83
2023-12-09T22:23:22.581Z,4.97
2023-12-09T22:25:48.964Z,4.23
2023-12-09T22:28:15.468Z,4.40
2023-12-09T22:30:41.909Z,4.27
2023-12-09T22:33:08.471Z,3.90
2023-12-09T22:35:35.259Z,3.60
2023-12-09T22:38:01.725Z,3.73
2023-12-09T22:40:28.303Z,3.63
2023-12-09T22:42:54.863Z,3.60
2023-12-09T22:45:21.476Z,3.50
2023-12-09T22:47:48.224Z,3.03
2023-12-09T22:50:14.926Z,2.60
2023-12-09T22:52:41.414Z,2.70
2023-12-09T22:55:08.324Z,2.80
2023-12-09T22:57:34.790Z,3.10
2023-12-09T23:00:01.348Z,2.63
2023-12-09T23:02:28.039Z,2.83
2023-12-09T23:04:54.890Z,2.50
2023-12-09T23:07:21.315Z,2.70
2023-12-09T23:09:47.814Z,2.67
2023-12-09T23:12:14.501Z,2.50
2023-12-09T23:14:40.950Z,2.50
2023-12-09T23:17:07.404Z,2.20
2023-12-09T23:19:34.042Z,2.40
2023-12-09T23:22:00.528Z,2.33
2023-12-09T23:24:27.021Z,2.20
2023-12-09T23:26:54.800Z,2.20
2023-12-09T23:29:21.382Z,2.00
2023-12-09T23:31:47.852Z,2.17
2023-12-09T23:34:16.544Z,2.37
2023-12-09T23:36:43.097Z,2.03
2023-12-09T23:39:09.628Z,2.43
2023-12-09T23:41:36.138Z,2.30
2023-12-09T23:44:02.575Z,2.70
2023-12-09T23:46:29.062Z,2.40
2023-12-09T23:48:57.073Z,2.33
2023-12-09T23:51:24.250Z,2.20
2023-12-09T23:53:50.689Z,2.20
2023-12-09T23:56:24.643Z,2.40
2023-12-09T23:58:51.099Z,2.50
